createdAt,value
2017-01-22T00:00:20.805Z,20.66
2017-01-22T00:01:20.612Z,20.7
2017-01-22T00:02:20.421Z,20.67
2017-01-22T00:03:20.847Z,20.7
2017-01-22T00:04:20.431Z,20.67
2017-01-22T00:05:20.782Z,20.73
2017-01-22T00:06:20.409Z,20.74
2017-01-22T00:07:20.843Z,20.58
2017-01-22T00:08:20.793Z,20.66
2017-01-22T00:09:20.850Z,20.67
2017-01-22T00:10:20.408Z,20.67
2017-01-22T00:11:20.835Z,20.64
2017-01-22T00:12:21.421Z,20.7
2017-01-22T00:13:20.476Z,20.66
2017-01-22T00:14:20.827Z,20.66
2017-01-22T00:15:20.488Z,20.73
2017-01-22T00:16:20.049Z,20.67
2017-01-22T00:17:20.447Z,20.66
2017-01-22T00:18:20.847Z,20.62
2017-01-22T00:19:20.511Z,20.8
2017-01-22T00:20:20.858Z,20.72
2017-01-22T00:21:21.885Z,20.7
2017-01-22T00:22:20.526Z,20.73
2017-01-22T00:23:20.079Z,20.69
2017-01-22T00:24:20.089Z,20.74
2017-01-22T00:25:21.084Z,20.59
2017-01-22T00:26:20.491Z,20.69
2017-01-22T00:27:20.942Z,20.7
2017-01-22T00:28:20.602Z,20.59
2017-01-22T00:29:20.505Z,20.67
2017-01-22T00:30:20.116Z,20.64
2017-01-22T00:31:20.575Z,20.69
2017-01-22T00:32:20.576Z,20.61
2017-01-22T00:33:20.928Z,20.67
2017-01-22T00:34:21.697Z,20.7
2017-01-22T00:35:20.194Z,20.62
2017-01-22T00:36:21.291Z,20.73
2017-01-22T00:37:20.598Z,20.69
2017-01-22T00:38:21.000Z,20.64
2017-01-22T00:39:20.563Z,20.73
2017-01-22T00:40:21.011Z,20.57
2017-01-22T00:41:20.620Z,20.67
2017-01-22T00:42:21.022Z,20.69
2017-01-22T00:43:35.511Z,20.67
2017-01-22T00:44:20.887Z,20.59
2017-01-22T00:45:22.136Z,20.66
2017-01-22T00:46:20.644Z,20.66
2017-01-22T00:47:21.403Z,20.67
2017-01-22T00:48:20.266Z,20.67
2017-01-22T00:49:20.613Z,20.66
2017-01-22T00:50:20.619Z,20.62
2017-01-22T00:51:20.672Z,20.62
2017-01-22T00:52:20.231Z,20.72
2017-01-22T00:53:20.235Z,20.74
2017-01-22T00:54:21.033Z,20.59
2017-01-22T00:55:20.253Z,20.7
2017-01-22T00:56:21.852Z,20.62
2017-01-22T00:57:20.704Z,20.66
2017-01-22T00:58:21.605Z,20.69
2017-01-22T00:59:20.713Z,20.7
2017-01-22T01:00:21.067Z,20.64
2017-01-22T01:01:20.282Z,20.72
2017-01-22T01:02:21.132Z,20.66
2017-01-22T01:03:20.737Z,20.66
2017-01-22T01:04:20.693Z,20.66
2017-01-22T01:05:20.354Z,20.7
2017-01-22T01:06:20.804Z,20.73
2017-01-22T01:07:20.709Z,20.62
2017-01-22T01:08:21.110Z,20.73
2017-01-22T01:09:21.813Z,20.67
2017-01-22T01:10:21.143Z,20.66
2017-01-22T01:11:21.123Z,20.74
2017-01-22T01:12:21.136Z,20.62
2017-01-22T01:13:35.275Z,20.64
2017-01-22T01:14:21.189Z,20.64
2017-01-22T01:15:21.146Z,20.69
2017-01-22T01:16:21.201Z,20.64
2017-01-22T01:17:20.761Z,20.64
2017-01-22T01:18:20.891Z,20.59
2017-01-22T01:19:21.171Z,20.66
2017-01-22T01:20:20.834Z,20.66
2017-01-22T01:21:20.882Z,20.72
2017-01-22T01:22:21.181Z,20.62
2017-01-22T01:23:21.186Z,20.58
2017-01-22T01:24:21.194Z,20.66
2017-01-22T01:25:20.804Z,20.67
2017-01-22T01:26:20.855Z,20.7
2017-01-22T01:27:21.257Z,20.66
2017-01-22T01:28:20.820Z,20.66
2017-01-22T01:29:21.218Z,20.67
2017-01-22T01:30:20.926Z,20.57
2017-01-22T01:31:20.440Z,20.67
2017-01-22T01:32:20.885Z,20.64
2017-01-22T01:33:20.914Z,20.74
2017-01-22T01:34:20.894Z,20.7
2017-01-22T01:35:20.882Z,20.59
2017-01-22T01:36:20.859Z,20.72
2017-01-22T01:37:20.864Z,20.7
2017-01-22T01:38:21.170Z,20.69
2017-01-22T01:39:20.497Z,20.67
2017-01-22T01:40:21.277Z,20.64
2017-01-22T01:41:20.489Z,20.62
2017-01-22T01:42:20.890Z,20.61
2017-01-22T01:43:21.344Z,20.66
2017-01-22T01:44:20.501Z,20.67
2017-01-22T01:45:20.908Z,20.66
2017-01-22T01:46:20.907Z,20.64
2017-01-22T01:47:21.360Z,20.61
2017-01-22T01:48:21.321Z,20.59
2017-01-22T01:49:21.376Z,20.64
2017-01-22T01:50:20.932Z,20.62
2017-01-22T01:51:21.379Z,20.69
2017-01-22T01:52:20.947Z,20.64
2017-01-22T01:53:20.946Z,20.66
2017-01-22T01:54:21.397Z,20.66
2017-01-22T01:55:21.380Z,20.67
2017-01-22T01:56:21.358Z,20.66
2017-01-22T01:57:21.068Z,20.66
2017-01-22T01:58:21.020Z,20.62
2017-01-22T01:59:21.472Z,20.61
2017-01-22T02:00:22.139Z,20.66
2017-01-22T02:01:21.013Z,20.57
2017-01-22T02:02:21.393Z,20.59
2017-01-22T02:03:20.712Z,20.7
2017-01-22T02:04:20.631Z,20.59
2017-01-22T02:05:21.358Z,20.64
2017-01-22T02:06:21.088Z,20.67
2017-01-22T02:07:21.024Z,20.64
2017-01-22T02:08:21.074Z,20.69
2017-01-22T02:09:21.031Z,20.61
2017-01-22T02:10:21.033Z,20.69
2017-01-22T02:11:21.758Z,20.72
2017-01-22T02:12:20.676Z,20.59
2017-01-22T02:13:21.544Z,20.7
2017-01-22T02:14:21.054Z,20.7
2017-01-22T02:15:20.665Z,20.69
2017-01-22T02:16:20.973Z,20.66
2017-01-22T02:17:21.465Z,20.64
2017-01-22T02:18:20.681Z,20.67
2017-01-22T02:19:20.712Z,20.73
2017-01-22T02:20:21.487Z,20.64
2017-01-22T02:21:20.752Z,20.7
2017-01-22T02:22:21.985Z,20.7
2017-01-22T02:23:20.760Z,20.76
2017-01-22T02:24:21.756Z,20.69
2017-01-22T02:25:20.828Z,20.62
2017-01-22T02:26:21.075Z,20.7
2017-01-22T02:27:21.124Z,20.72
2017-01-22T02:28:21.179Z,20.62
2017-01-22T02:29:21.181Z,20.72
2017-01-22T02:30:21.143Z,20.64
2017-01-22T02:31:21.191Z,20.64
2017-01-22T02:32:21.151Z,20.74
2017-01-22T02:33:21.212Z,20.67
2017-01-22T02:34:21.607Z,20.69
2017-01-22T02:35:22.263Z,20.61
2017-01-22T02:36:21.223Z,20.66
2017-01-22T02:37:21.625Z,20.66
2017-01-22T02:38:21.229Z,20.67
2017-01-22T02:39:21.190Z,20.64
2017-01-22T02:40:20.797Z,20.62
2017-01-22T02:41:21.599Z,20.62
2017-01-22T02:42:21.499Z,20.69
2017-01-22T02:43:21.261Z,20.67
2017-01-22T02:44:20.864Z,20.61
2017-01-22T02:45:21.611Z,20.62
2017-01-22T02:46:22.469Z,20.69
2017-01-22T02:47:20.880Z,20.64
2017-01-22T02:48:21.240Z,20.66
2017-01-22T02:49:21.681Z,20.73
2017-01-22T02:50:21.310Z,20.66
2017-01-22T02:51:21.345Z,20.62
2017-01-22T02:52:21.706Z,20.57
2017-01-22T02:53:21.804Z,20.61
2017-01-22T02:54:21.266Z,20.62
2017-01-22T02:55:21.317Z,20.61
2017-01-22T02:56:21.274Z,20.67
2017-01-22T02:57:22.478Z,20.59
2017-01-22T02:58:20.937Z,20.59
2017-01-22T02:59:20.943Z,20.69
2017-01-22T03:00:21.295Z,20.55
2017-01-22T03:01:21.330Z,20.7
2017-01-22T03:02:21.357Z,20.67
2017-01-22T03:03:21.071Z,20.66
2017-01-22T03:04:20.922Z,20.67
2017-01-22T03:05:20.976Z,20.67
2017-01-22T03:06:21.771Z,20.64
2017-01-22T03:07:21.380Z,20.59
2017-01-22T03:08:22.890Z,20.64
2017-01-22T03:09:21.342Z,20.64
2017-01-22T03:10:21.395Z,20.64
2017-01-22T03:11:21.453Z,20.62
2017-01-22T03:12:21.354Z,20.62
2017-01-22T03:13:36.248Z,20.61
2017-01-22T03:14:21.814Z,20.69
2017-01-22T03:15:21.420Z,20.64
2017-01-22T03:16:21.380Z,20.67
2017-01-22T03:17:21.388Z,20.55
2017-01-22T03:18:21.833Z,20.67
2017-01-22T03:19:21.393Z,20.67
2017-01-22T03:20:21.401Z,20.69
2017-01-22T03:21:21.403Z,20.69
2017-01-22T03:22:21.458Z,20.55
2017-01-22T03:23:21.069Z,20.66
2017-01-22T03:24:21.471Z,20.59
2017-01-22T03:25:21.474Z,20.72
2017-01-22T03:26:21.035Z,20.62
2017-01-22T03:27:21.831Z,20.62
2017-01-22T03:28:21.838Z,20.64
2017-01-22T03:29:21.552Z,20.62
2017-01-22T03:30:21.451Z,20.66
2017-01-22T03:31:21.458Z,20.57
2017-01-22T03:32:21.459Z,20.64
2017-01-22T03:33:21.861Z,20.64
2017-01-22T03:34:21.573Z,20.62
2017-01-22T03:35:21.921Z,20.58
2017-01-22T03:36:21.090Z,20.64
2017-01-22T03:37:21.091Z,20.7
2017-01-22T03:38:21.889Z,20.76
2017-01-22T03:39:22.104Z,20.69
2017-01-22T03:40:21.953Z,20.66
2017-01-22T03:41:21.905Z,20.72
2017-01-22T03:42:21.515Z,20.62
2017-01-22T03:43:21.519Z,20.64
2017-01-22T03:44:21.129Z,20.7
2017-01-22T03:45:21.132Z,20.62
2017-01-22T03:46:21.981Z,20.67
2017-01-22T03:47:21.987Z,20.66
2017-01-22T03:48:21.942Z,20.69
2017-01-22T03:49:21.949Z,20.61
2017-01-22T03:50:22.310Z,20.62
2017-01-22T03:51:21.616Z,20.64
2017-01-22T03:52:21.704Z,20.64
2017-01-22T03:53:21.970Z,20.69
2017-01-22T03:54:21.232Z,20.7
2017-01-22T03:55:21.237Z,20.72
2017-01-22T03:56:21.984Z,20.61
2017-01-22T03:57:21.645Z,20.64
2017-01-22T03:58:21.253Z,20.62
2017-01-22T03:59:22.022Z,20.64
2017-01-22T04:00:21.212Z,20.61
2017-01-22T04:01:22.863Z,20.66
2017-01-22T04:02:21.621Z,20.58
2017-01-22T04:03:21.725Z,20.64
2017-01-22T04:04:21.681Z,20.66
2017-01-22T04:05:21.641Z,20.69
2017-01-22T04:06:21.691Z,20.7
2017-01-22T04:07:21.647Z,20.66
2017-01-22T04:08:21.657Z,20.62
2017-01-22T04:09:22.101Z,20.62
2017-01-22T04:10:21.663Z,20.66
2017-01-22T04:11:21.719Z,20.62
2017-01-22T04:12:23.295Z,20.64
2017-01-22T04:13:21.777Z,20.62
2017-01-22T04:14:22.240Z,20.66
2017-01-22T04:15:22.186Z,20.62
2017-01-22T04:16:21.355Z,20.61
2017-01-22T04:17:22.097Z,20.64
2017-01-22T04:18:21.702Z,20.58
2017-01-22T04:19:22.153Z,20.69
2017-01-22T04:20:22.111Z,20.58
2017-01-22T04:21:21.721Z,20.62
2017-01-22T04:22:22.119Z,20.62
2017-01-22T04:23:23.584Z,20.66
2017-01-22T04:24:22.180Z,20.66
2017-01-22T04:25:22.740Z,20.67
2017-01-22T04:26:21.797Z,20.7
2017-01-22T04:27:22.153Z,20.69
2017-01-22T04:28:21.809Z,20.64
2017-01-22T04:29:21.811Z,20.59
2017-01-22T04:30:21.817Z,20.66
2017-01-22T04:31:21.824Z,20.64
2017-01-22T04:32:21.437Z,20.62
2017-01-22T04:33:21.391Z,20.62
2017-01-22T04:34:22.184Z,20.62
2017-01-22T04:35:21.795Z,20.67
2017-01-22T04:36:22.849Z,20.64
2017-01-22T04:37:21.805Z,20.59
2017-01-22T04:38:21.414Z,20.62
2017-01-22T04:39:21.470Z,20.66
2017-01-22T04:40:21.822Z,20.61
2017-01-22T04:41:22.272Z,20.66
2017-01-22T04:42:21.433Z,20.64
2017-01-22T04:43:22.293Z,20.64
2017-01-22T04:44:21.891Z,20.62
2017-01-22T04:45:21.896Z,20.66
2017-01-22T04:46:21.457Z,20.66
2017-01-22T04:47:21.864Z,20.66
2017-01-22T04:48:21.862Z,20.69
2017-01-22T04:49:21.919Z,20.66
2017-01-22T04:50:22.269Z,20.62
2017-01-22T04:51:21.925Z,20.66
2017-01-22T04:52:21.883Z,20.57
2017-01-22T04:53:21.939Z,20.69
2017-01-22T04:54:21.892Z,20.69
2017-01-22T04:55:22.293Z,20.72
2017-01-22T04:56:22.349Z,20.7
2017-01-22T04:57:21.959Z,20.64
2017-01-22T04:58:21.963Z,20.66
2017-01-22T04:59:21.525Z,20.69
2017-01-22T05:00:21.926Z,20.64
2017-01-22T05:01:21.590Z,20.64
2017-01-22T05:02:21.986Z,20.64
2017-01-22T05:03:21.940Z,20.62
2017-01-22T05:04:21.945Z,20.69
2017-01-22T05:05:22.343Z,20.66
2017-01-22T05:06:22.076Z,20.72
2017-01-22T05:07:22.611Z,20.64
2017-01-22T05:08:22.408Z,20.69
2017-01-22T05:09:21.872Z,20.72
2017-01-22T05:10:21.974Z,20.69
2017-01-22T05:11:22.378Z,20.67
2017-01-22T05:12:22.034Z,20.72
2017-01-22T05:13:21.992Z,20.61
2017-01-22T05:14:22.392Z,20.64
2017-01-22T05:15:21.607Z,20.66
2017-01-22T05:16:22.450Z,20.59
2017-01-22T05:17:22.057Z,20.7
2017-01-22T05:18:22.418Z,20.67
2017-01-22T05:19:22.465Z,20.61
2017-01-22T05:20:22.086Z,20.73
2017-01-22T05:21:22.033Z,20.7
2017-01-22T05:22:21.693Z,20.67
2017-01-22T05:23:22.488Z,20.76
2017-01-22T05:24:22.053Z,20.69
2017-01-22T05:25:22.053Z,20.62
2017-01-22T05:26:21.664Z,20.67
2017-01-22T05:27:21.717Z,20.66
2017-01-22T05:28:22.067Z,20.62
2017-01-22T05:29:23.226Z,20.66
2017-01-22T05:30:22.127Z,20.69
2017-01-22T05:31:22.486Z,20.64
2017-01-22T05:32:22.141Z,20.61
2017-01-22T05:33:22.094Z,20.59
2017-01-22T05:34:22.545Z,20.55
2017-01-22T05:35:22.107Z,20.66
2017-01-22T05:36:22.555Z,20.7
2017-01-22T05:37:22.112Z,20.69
2017-01-22T05:38:22.119Z,20.7
2017-01-22T05:39:22.602Z,20.74
2017-01-22T05:40:23.627Z,20.66
2017-01-22T05:41:22.582Z,20.62
2017-01-22T05:42:23.010Z,20.61
2017-01-22T05:43:21.800Z,20.57
2017-01-22T05:44:22.547Z,20.64
2017-01-22T05:45:22.159Z,20.69
2017-01-22T05:46:22.208Z,20.64
2017-01-22T05:47:22.214Z,20.66
2017-01-22T05:48:22.177Z,20.67
2017-01-22T05:49:22.227Z,20.7
2017-01-22T05:50:21.785Z,20.62
2017-01-22T05:51:21.843Z,20.73
2017-01-22T05:52:22.244Z,20.57
2017-01-22T05:53:23.344Z,20.69
2017-01-22T05:54:21.804Z,20.62
2017-01-22T05:55:22.207Z,20.64
2017-01-22T05:56:22.607Z,20.62
2017-01-22T05:57:21.823Z,20.64
2017-01-22T05:58:21.825Z,20.57
2017-01-22T05:59:22.622Z,20.64
2017-01-22T06:00:21.834Z,20.69
2017-01-22T06:01:22.243Z,20.72
2017-01-22T06:02:22.246Z,20.69
2017-01-22T06:03:21.953Z,20.61
2017-01-22T06:04:23.700Z,20.62
2017-01-22T06:05:22.656Z,20.64
2017-01-22T06:06:22.316Z,20.69
2017-01-22T06:07:21.977Z,20.67
2017-01-22T06:08:21.931Z,20.67
2017-01-22T06:09:22.328Z,20.64
2017-01-22T06:10:22.284Z,20.64
2017-01-22T06:11:22.339Z,20.61
2017-01-22T06:12:22.300Z,20.66
2017-01-22T06:13:22.303Z,20.61
2017-01-22T06:14:22.357Z,20.64
2017-01-22T06:15:24.193Z,20.69
2017-01-22T06:16:22.763Z,20.67
2017-01-22T06:17:22.030Z,20.72
2017-01-22T06:18:22.722Z,20.67
2017-01-22T06:19:22.384Z,20.72
2017-01-22T06:20:22.836Z,20.67
2017-01-22T06:21:22.343Z,20.72
2017-01-22T06:22:22.845Z,20.64
2017-01-22T06:23:22.454Z,20.73
2017-01-22T06:24:22.658Z,20.69
2017-01-22T06:25:22.860Z,20.59
2017-01-22T06:26:22.419Z,20.73
2017-01-22T06:27:22.821Z,20.67
2017-01-22T06:28:22.383Z,20.66
2017-01-22T06:29:22.386Z,20.76
2017-01-22T06:30:22.391Z,20.64
2017-01-22T06:31:22.001Z,20.64
2017-01-22T06:32:22.399Z,20.66
2017-01-22T06:33:22.461Z,20.73
2017-01-22T06:34:22.016Z,20.74
2017-01-22T06:35:22.917Z,20.7
2017-01-22T06:36:22.419Z,20.58
2017-01-22T06:37:22.425Z,20.67
2017-01-22T06:38:22.831Z,20.66
2017-01-22T06:39:22.886Z,20.67
2017-01-22T06:40:22.044Z,20.66
2017-01-22T06:41:22.054Z,20.62
2017-01-22T06:42:22.505Z,20.67
2017-01-22T06:43:22.511Z,20.67
2017-01-22T06:44:22.464Z,20.67
2017-01-22T06:45:22.471Z,20.57
2017-01-22T06:46:23.229Z,20.55
2017-01-22T06:47:22.480Z,20.59
2017-01-22T06:48:22.878Z,20.66
2017-01-22T06:49:22.096Z,20.62
2017-01-22T06:50:22.104Z,20.62
2017-01-22T06:51:22.502Z,20.66
2017-01-22T06:52:22.557Z,20.73
2017-01-22T06:53:22.113Z,20.69
2017-01-22T06:54:22.516Z,20.59
2017-01-22T06:55:22.521Z,20.67
2017-01-22T06:56:22.581Z,20.7
2017-01-22T06:57:23.481Z,20.62
2017-01-22T06:58:22.536Z,20.67
2017-01-22T06:59:23.040Z,20.69
2017-01-22T07:00:22.943Z,20.67
2017-01-22T07:01:22.904Z,20.62
2017-01-22T07:02:23.003Z,20.74
2017-01-22T07:03:22.616Z,20.74
2017-01-22T07:04:22.623Z,20.69
2017-01-22T07:05:22.574Z,20.62
2017-01-22T07:06:22.576Z,20.62
2017-01-22T07:07:23.082Z,20.74
2017-01-22T07:08:23.985Z,20.7
2017-01-22T07:09:22.592Z,20.67
2017-01-22T07:10:22.850Z,20.7
2017-01-22T07:11:22.310Z,20.74
2017-01-22T07:12:23.009Z,20.66
2017-01-22T07:13:22.273Z,20.62
2017-01-22T07:14:22.226Z,20.64
2017-01-22T07:15:22.282Z,20.64
2017-01-22T07:16:23.031Z,20.67
2017-01-22T07:17:22.642Z,20.69
2017-01-22T07:18:22.270Z,20.72
2017-01-22T07:19:24.389Z,20.66
2017-01-22T07:20:22.708Z,20.77
2017-01-22T07:21:23.708Z,20.72
2017-01-22T07:22:23.208Z,20.7
2017-01-22T07:23:23.061Z,20.67
2017-01-22T07:24:22.674Z,20.74
2017-01-22T07:25:22.727Z,20.73
2017-01-22T07:26:22.732Z,20.67
2017-01-22T07:27:23.134Z,20.67
2017-01-22T07:28:23.091Z,20.61
2017-01-22T07:29:23.098Z,20.62
2017-01-22T07:30:24.578Z,20.67
2017-01-22T07:31:22.764Z,20.66
2017-01-22T07:32:23.916Z,20.67
2017-01-22T07:33:22.373Z,20.66
2017-01-22T07:34:23.176Z,20.77
2017-01-22T07:35:22.782Z,20.76
2017-01-22T07:36:22.790Z,20.77
2017-01-22T07:37:23.137Z,20.67
2017-01-22T07:38:22.797Z,20.72
2017-01-22T07:39:22.905Z,20.67
2017-01-22T07:40:22.768Z,20.72
2017-01-22T07:41:23.260Z,20.7
2017-01-22T07:42:23.268Z,20.67
2017-01-22T07:43:23.923Z,20.67
2017-01-22T07:44:23.178Z,20.87
2017-01-22T07:45:22.835Z,20.7
2017-01-22T07:46:22.394Z,20.67
2017-01-22T07:47:22.795Z,20.66
2017-01-22T07:48:23.243Z,20.62
2017-01-22T07:49:23.323Z,20.66
2017-01-22T07:50:23.312Z,20.69
2017-01-22T07:51:22.816Z,20.73
2017-01-22T07:52:22.969Z,20.69
2017-01-22T07:53:23.223Z,20.76
2017-01-22T07:54:22.485Z,20.76
2017-01-22T07:55:23.282Z,20.73
2017-01-22T07:56:22.446Z,20.72
2017-01-22T07:57:22.906Z,20.7
2017-01-22T07:58:22.907Z,20.69
2017-01-22T07:59:22.911Z,20.72
2017-01-22T08:00:22.921Z,20.74
2017-01-22T08:01:23.271Z,20.7
2017-01-22T08:02:22.926Z,20.73
2017-01-22T08:03:22.990Z,20.76
2017-01-22T08:04:22.538Z,20.72
2017-01-22T08:05:23.337Z,20.73
2017-01-22T08:06:22.898Z,20.76
2017-01-22T08:07:22.921Z,20.7
2017-01-22T08:08:23.005Z,20.72
2017-01-22T08:09:22.515Z,20.72
2017-01-22T08:10:23.362Z,20.73
2017-01-22T08:11:23.363Z,20.76
2017-01-22T08:12:24.373Z,20.79
2017-01-22T08:13:22.979Z,20.72
2017-01-22T08:14:23.639Z,20.77
2017-01-22T08:15:22.995Z,20.73
2017-01-22T08:16:23.104Z,20.74
2017-01-22T08:17:22.951Z,20.76
2017-01-22T08:18:22.558Z,20.64
2017-01-22T08:19:22.616Z,20.77
2017-01-22T08:20:22.970Z,20.72
2017-01-22T08:21:23.074Z,20.72
2017-01-22T08:22:23.030Z,20.76
2017-01-22T08:23:24.539Z,20.77
2017-01-22T08:24:23.036Z,20.76
2017-01-22T08:25:23.548Z,20.72
2017-01-22T08:26:23.402Z,20.72
2017-01-22T08:27:23.157Z,20.8
2017-01-22T08:28:23.459Z,20.73
2017-01-22T08:29:22.618Z,20.72
2017-01-22T08:30:23.021Z,20.74
2017-01-22T08:31:22.677Z,20.73
2017-01-22T08:32:22.684Z,20.77
2017-01-22T08:33:23.082Z,20.82
2017-01-22T08:34:24.507Z,20.74
2017-01-22T08:35:23.098Z,20.73
2017-01-22T08:36:23.950Z,20.76
2017-01-22T08:37:23.055Z,20.74
2017-01-22T08:38:23.712Z,20.67
2017-01-22T08:39:22.672Z,20.82
2017-01-22T08:40:23.519Z,20.72
2017-01-22T08:41:22.682Z,20.72
2017-01-22T08:42:23.136Z,20.72
2017-01-22T08:43:23.139Z,20.72
2017-01-22T08:44:23.143Z,20.72
2017-01-22T08:45:22.705Z,20.77
2017-01-22T08:46:23.501Z,20.8
2017-01-22T08:47:24.681Z,20.7
2017-01-22T08:48:23.162Z,20.84
2017-01-22T08:49:24.029Z,20.82
2017-01-22T08:50:23.128Z,20.94
2017-01-22T08:51:22.788Z,20.95
2017-01-22T08:52:23.587Z,21.03
2017-01-22T08:53:23.143Z,21.1
2017-01-22T08:54:23.159Z,21.16
2017-01-22T08:55:23.159Z,21.16
2017-01-22T08:56:23.221Z,21.25
2017-01-22T08:57:23.180Z,21.31
2017-01-22T08:58:23.183Z,21.34
2017-01-22T08:59:23.587Z,21.37
2017-01-22T09:00:24.302Z,21.4
2017-01-22T09:01:22.859Z,21.34
2017-01-22T09:02:23.262Z,21.54
2017-01-22T09:03:23.619Z,21.58
2017-01-22T09:04:23.233Z,21.5
2017-01-22T09:05:22.845Z,21.47
2017-01-22T09:06:23.741Z,21.52
2017-01-22T09:07:23.806Z,21.61
2017-01-22T09:08:22.918Z,21.67
2017-01-22T09:09:23.719Z,21.64
2017-01-22T09:10:23.285Z,21.71
2017-01-22T09:11:23.686Z,21.77
2017-01-22T09:12:22.952Z,21.82
2017-01-22T09:13:23.362Z,21.9
2017-01-22T09:14:23.319Z,21.83
2017-01-22T09:15:23.329Z,21.84
2017-01-22T09:16:23.838Z,21.9
2017-01-22T09:17:22.951Z,21.9
2017-01-22T09:18:23.760Z,21.94
2017-01-22T09:19:23.761Z,21.94
2017-01-22T09:20:23.582Z,22.02
2017-01-22T09:21:23.787Z,22.09
2017-01-22T09:22:23.447Z,21.98
2017-01-22T09:23:23.456Z,22.14
2017-01-22T09:24:23.888Z,22.02
2017-01-22T09:25:23.922Z,22.09
2017-01-22T09:26:23.438Z,22.09
2017-01-22T09:27:23.444Z,22.14
2017-01-22T09:28:23.061Z,22.15
2017-01-22T09:29:24.271Z,22.17
2017-01-22T09:30:23.577Z,22.22
2017-01-22T09:31:23.990Z,22.2
2017-01-22T09:32:23.847Z,22.21
2017-01-22T09:33:23.556Z,22.27
2017-01-22T09:34:23.568Z,22.22
2017-01-22T09:35:23.528Z,22.28
2017-01-22T09:36:23.936Z,22.21
2017-01-22T09:37:23.546Z,22.27
2017-01-22T09:38:23.212Z,22.18
2017-01-22T09:39:24.012Z,22.2
2017-01-22T09:40:23.628Z,22.21
2017-01-22T09:41:23.982Z,22.27
2017-01-22T09:42:24.700Z,22.25
2017-01-22T09:43:38.137Z,22.22
2017-01-22T09:44:23.713Z,22.25
2017-01-22T09:45:23.624Z,22.2
2017-01-22T09:46:23.936Z,22.18
2017-01-22T09:47:23.692Z,22.24
2017-01-22T09:48:23.648Z,22.15
2017-01-22T09:49:23.309Z,22.12
2017-01-22T09:50:23.769Z,22.07
2017-01-22T09:51:23.723Z,22.06
2017-01-22T09:52:23.733Z,22.02
2017-01-22T09:53:25.137Z,22.03
2017-01-22T09:54:24.146Z,22.02
2017-01-22T09:55:24.149Z,22.12
2017-01-22T09:56:23.764Z,22.14
2017-01-22T09:57:23.720Z,22.06
2017-01-22T09:58:23.779Z,22.06
2017-01-22T09:59:23.736Z,22.09
2017-01-22T10:00:23.742Z,22.09
2017-01-22T10:01:23.802Z,21.96
2017-01-22T10:02:23.811Z,21.92
2017-01-22T10:03:23.764Z,21.94
2017-01-22T10:04:25.742Z,21.96
2017-01-22T10:05:24.181Z,21.96
2017-01-22T10:06:24.285Z,21.9
2017-01-22T10:07:24.242Z,21.91
2017-01-22T10:08:24.248Z,21.91
2017-01-22T10:09:23.809Z,22.03
2017-01-22T10:10:23.818Z,22.22
2017-01-22T10:11:23.920Z,22.77
2017-01-22T10:12:24.227Z,23.35
2017-01-22T10:13:24.241Z,23.7
2017-01-22T10:14:23.498Z,23.76
2017-01-22T10:15:24.246Z,23.66
2017-01-22T10:16:24.253Z,23.68
2017-01-22T10:17:23.915Z,23.54
2017-01-22T10:18:23.872Z,23.39
2017-01-22T10:19:23.533Z,23.32
2017-01-22T10:20:23.543Z,23
2017-01-22T10:21:24.243Z,22.88
2017-01-22T10:22:24.304Z,22.58
2017-01-22T10:23:23.953Z,22.37
2017-01-22T10:24:24.683Z,22.25
2017-01-22T10:25:23.923Z,22.09
2017-01-22T10:26:23.926Z,21.92
2017-01-22T10:27:24.329Z,21.88
2017-01-22T10:28:23.990Z,21.71
2017-01-22T10:29:24.049Z,21.79
2017-01-22T10:30:23.560Z,21.62
2017-01-22T10:31:23.962Z,21.61
2017-01-22T10:32:24.367Z,21.64
2017-01-22T10:33:23.976Z,21.5
2017-01-22T10:34:24.031Z,21.52
2017-01-22T10:35:25.292Z,21.47
2017-01-22T10:36:24.048Z,21.54
2017-01-22T10:37:24.159Z,21.49
2017-01-22T10:38:24.060Z,21.49
2017-01-22T10:39:24.071Z,21.34
2017-01-22T10:40:24.419Z,21.42
2017-01-22T10:41:24.035Z,21.47
2017-01-22T10:42:24.590Z,21.42
2017-01-22T10:43:23.647Z,21.43
2017-01-22T10:44:24.496Z,21.44
2017-01-22T10:45:24.077Z,21.42
2017-01-22T10:46:25.959Z,21.38
2017-01-22T10:47:23.727Z,21.37
2017-01-22T10:48:24.783Z,21.37
2017-01-22T10:49:23.688Z,21.34
2017-01-22T10:50:23.747Z,21.32
2017-01-22T10:51:24.493Z,21.27
2017-01-22T10:52:23.708Z,21.24
2017-01-22T10:53:24.163Z,21.34
2017-01-22T10:54:23.721Z,21.22
2017-01-22T10:55:24.147Z,21.25
2017-01-22T10:56:24.524Z,21.29
2017-01-22T10:57:24.583Z,21.22
2017-01-22T10:58:24.142Z,21.21
2017-01-22T10:59:25.090Z,21.22
2017-01-22T11:00:24.156Z,21.24
2017-01-22T11:01:24.162Z,21.14
2017-01-22T11:02:23.893Z,21.1
2017-01-22T11:03:23.788Z,21.07
2017-01-22T11:04:24.575Z,21.09
2017-01-22T11:05:24.678Z,21.06
2017-01-22T11:06:24.841Z,21.07
2017-01-22T11:07:24.299Z,21.03
2017-01-22T11:08:23.910Z,21.07
2017-01-22T11:09:24.613Z,21.12
2017-01-22T11:10:24.216Z,21.12
2017-01-22T11:11:23.825Z,21.12
2017-01-22T11:12:24.230Z,21.12
2017-01-22T11:13:24.679Z,21.13
2017-01-22T11:14:24.294Z,21.03
2017-01-22T11:15:24.298Z,21.01
2017-01-22T11:16:23.912Z,20.99
2017-01-22T11:17:23.862Z,20.99
2017-01-22T11:18:24.364Z,21.01
2017-01-22T11:19:24.771Z,20.97
2017-01-22T11:20:24.349Z,20.99
2017-01-22T11:21:24.084Z,21.03
2017-01-22T11:22:24.289Z,20.94
2017-01-22T11:23:24.690Z,20.92
2017-01-22T11:24:24.005Z,20.95
2017-01-22T11:25:24.308Z,20.91
2017-01-22T11:26:24.366Z,20.97
2017-01-22T11:27:23.923Z,20.91
2017-01-22T11:28:24.326Z,20.91
2017-01-22T11:29:24.381Z,20.91
2017-01-22T11:30:25.288Z,20.95
2017-01-22T11:31:24.340Z,20.97
2017-01-22T11:32:24.698Z,20.94
2017-01-22T11:33:24.014Z,20.88
2017-01-22T11:34:24.755Z,20.92
2017-01-22T11:35:23.971Z,20.85
2017-01-22T11:36:24.814Z,20.88
2017-01-22T11:37:24.827Z,20.85
2017-01-22T11:38:24.382Z,20.82
2017-01-22T11:39:24.783Z,20.88
2017-01-22T11:40:24.402Z,20.87
2017-01-22T11:41:24.007Z,20.88
2017-01-22T11:42:24.506Z,20.87
2017-01-22T11:43:53.772Z,20.77
2017-01-22T11:44:24.420Z,20.84
2017-01-22T11:45:24.477Z,20.82
2017-01-22T11:46:24.032Z,20.84
2017-01-22T11:47:24.931Z,20.87
2017-01-22T11:48:24.048Z,20.84
2017-01-22T11:49:24.450Z,20.74
2017-01-22T11:50:24.054Z,20.73
2017-01-22T11:51:24.455Z,20.85
2017-01-22T11:52:24.515Z,20.84
2017-01-22T11:53:24.471Z,20.7
2017-01-22T11:54:25.528Z,20.8
2017-01-22T11:55:24.485Z,20.79
2017-01-22T11:56:24.983Z,20.7
2017-01-22T11:57:24.494Z,20.82
2017-01-22T11:58:24.109Z,20.85
2017-01-22T11:59:24.950Z,20.74
2017-01-22T12:00:24.959Z,20.74
2017-01-22T12:01:24.910Z,20.76
2017-01-22T12:02:24.968Z,20.8
2017-01-22T12:03:24.577Z,20.85
2017-01-22T12:04:24.530Z,20.79
2017-01-22T12:05:25.937Z,20.79
2017-01-22T12:06:24.646Z,20.82
2017-01-22T12:07:24.212Z,20.77
2017-01-22T12:08:24.619Z,20.91
2017-01-22T12:09:24.564Z,20.87
2017-01-22T12:10:24.964Z,20.88
2017-01-22T12:11:24.573Z,20.84
2017-01-22T12:12:24.596Z,20.87
2017-01-22T12:13:26.587Z,20.91
2017-01-22T12:14:24.642Z,20.88
2017-01-22T12:15:24.990Z,20.85
2017-01-22T12:16:24.207Z,20.82
2017-01-22T12:17:25.110Z,20.88
2017-01-22T12:18:25.008Z,20.88
2017-01-22T12:19:24.672Z,20.85
2017-01-22T12:20:24.676Z,20.87
2017-01-22T12:21:25.076Z,20.82
2017-01-22T12:22:25.137Z,20.84
2017-01-22T12:23:24.646Z,20.77
2017-01-22T12:24:24.697Z,20.85
2017-01-22T12:25:25.356Z,20.84
2017-01-22T12:26:25.110Z,20.82
2017-01-22T12:27:24.719Z,20.73
2017-01-22T12:28:24.671Z,20.8
2017-01-22T12:29:26.126Z,20.84
2017-01-22T12:30:24.681Z,20.85
2017-01-22T12:31:24.687Z,20.84
2017-01-22T12:32:25.193Z,20.85
2017-01-22T12:33:24.753Z,20.77
2017-01-22T12:34:24.704Z,20.7
2017-01-22T12:35:25.407Z,20.72
2017-01-22T12:36:25.816Z,20.73
2017-01-22T12:37:25.220Z,20.73
2017-01-22T12:38:25.224Z,20.72
2017-01-22T12:39:24.735Z,20.72
2017-01-22T12:40:24.342Z,20.76
2017-01-22T12:41:24.756Z,20.73
2017-01-22T12:42:24.750Z,20.67
2017-01-22T12:43:24.466Z,20.73
2017-01-22T12:44:25.160Z,20.72
2017-01-22T12:45:24.375Z,20.82
2017-01-22T12:46:24.873Z,20.74
2017-01-22T12:47:26.571Z,20.72
2017-01-22T12:48:25.228Z,20.8
2017-01-22T12:49:26.087Z,20.72
2017-01-22T12:50:24.398Z,20.76
2017-01-22T12:51:24.402Z,20.72
2017-01-22T12:52:25.203Z,20.76
2017-01-22T12:53:25.203Z,20.76
2017-01-22T12:54:24.969Z,20.74